createdAt,value
2019-05-19T00:02:25.672Z,98723.24
2019-05-19T00:05:00.051Z,98728.70
2019-05-19T00:07:34.086Z,98726.54
2019-05-19T00:10:09.796Z,98735.53
2019-05-19T00:12:43.970Z,98739.64
2019-05-19T00:15:18.115Z,98740.45
2019-05-19T00:17:53.323Z,98748.09
2019-05-19T00:20:27.421Z,98747.23
2019-05-19T00:23:01.824Z,98756.80
2019-05-19T00:25:36.532Z,98760.13
2019-05-19T00:28:11.013Z,98760.13
2019-05-19T00:30:45.187Z,98763.42
2019-05-19T00:33:19.365Z,98770.00
2019-05-19T00:35:53.928Z,98774.15
2019-05-19T00:38:28.183Z,98778.64
2019-05-19T00:41:02.473Z,98776.97
2019-05-19T00:43:36.429Z,98776.13
2019-05-19T00:46:10.819Z,98786.84
2019-05-19T00:48:44.981Z,98789.53
2019-05-19T00:51:19.652Z,98797.17
2019-05-19T00:53:53.947Z,98799.60
2019-05-19T00:56:28.442Z,98807.75
2019-05-19T00:59:05.318Z,98805.01
2019-05-19T01:01:39.501Z,98811.84
2019-05-19T01:04:13.748Z,98809.92
2019-05-19T01:06:48.152Z,98820.80
2019-05-19T01:09:22.391Z,98825.52
2019-05-19T01:11:56.492Z,98831.19
2019-05-19T01:14:30.613Z,98834.22
2019-05-19T01:17:04.691Z,98835.59
2019-05-19T01:19:38.929Z,98837.80
2019-05-19T01:22:14.036Z,98833.70
2019-05-19T01:24:48.353Z,98833.10
2019-05-19T01:27:22.484Z,98837.75
2019-05-19T01:29:56.485Z,98843.48
2019-05-19T01:32:30.745Z,98848.48
2019-05-19T01:35:04.680Z,98850.31
2019-05-19T01:37:39.153Z,98848.43
2019-05-19T01:40:13.907Z,98856.13
2019-05-19T01:42:48.027Z,98855.56
2019-05-19T01:45:22.427Z,98853.59
2019-05-19T01:47:56.988Z,98858.29
2019-05-19T01:50:32.502Z,98857.70
2019-05-19T01:53:06.720Z,98862.59
2019-05-19T01:55:40.586Z,98868.13
2019-05-19T01:58:14.707Z,98874.84
2019-05-19T02:00:48.622Z,98881.72
2019-05-19T02:03:22.882Z,98886.94
2019-05-19T02:05:57.191Z,98885.84
2019-05-19T02:08:31.287Z,98881.28
2019-05-19T02:11:05.628Z,98884.52
2019-05-19T02:13:39.698Z,98884.81
2019-05-19T02:16:13.754Z,98883.16
2019-05-19T02:18:48.184Z,98886.39
2019-05-19T02:21:22.134Z,98886.69
2019-05-19T02:23:56.160Z,98889.98
2019-05-19T02:26:30.201Z,98891.66
2019-05-19T02:29:04.467Z,98894.08
2019-05-19T02:31:39.347Z,98892.45
2019-05-19T02:34:13.468Z,98892.97
2019-05-19T02:36:47.603Z,98889.72
2019-05-19T02:39:21.859Z,98894.94
2019-05-19T02:41:58.051Z,98897.66
2019-05-19T02:44:33.825Z,98897.36
2019-05-19T02:47:08.121Z,98901.41
2019-05-19T02:49:44.516Z,98912.14
2019-05-19T02:52:19.581Z,98914.88
2019-05-19T02:54:53.562Z,98907.80
2019-05-19T02:57:28.111Z,98915.70
2019-05-19T03:00:02.661Z,98916.81
2019-05-19T03:02:37.928Z,98914.08
2019-05-19T03:05:12.111Z,98922.28
2019-05-19T03:07:46.496Z,98927.99
2019-05-19T03:10:20.444Z,98929.16
2019-05-19T03:12:54.559Z,98922.75
2019-05-19T03:15:28.831Z,98925.97
2019-05-19T03:18:02.817Z,98931.12
2019-05-19T03:20:37.634Z,98935.17
2019-05-19T03:23:11.585Z,98933.24
2019-05-19T03:25:45.567Z,98934.83
2019-05-19T03:28:19.936Z,98928.05
2019-05-19T03:31:12.878Z,98924.41
2019-05-19T03:33:48.651Z,98928.39
2019-05-19T03:36:22.899Z,98926.43
2019-05-19T03:38:57.228Z,98927.34
2019-05-19T03:41:31.630Z,98929.80
2019-05-19T03:44:05.785Z,98926.20
2019-05-19T03:46:40.187Z,98921.70
2019-05-19T03:49:14.575Z,98930.12
2019-05-19T03:51:49.063Z,98930.51
2019-05-19T03:54:23.313Z,98934.74
2019-05-19T03:56:57.563Z,98932.38
2019-05-19T03:59:31.486Z,98939.34
2019-05-19T04:02:05.593Z,98936.45
2019-05-19T04:04:39.877Z,98927.76
2019-05-19T04:07:14.061Z,98930.34
2019-05-19T04:09:47.966Z,98932.86
2019-05-19T04:12:22.131Z,98934.00
2019-05-19T04:14:56.430Z,98937.30
2019-05-19T04:17:30.603Z,98939.52
2019-05-19T04:20:05.031Z,98938.90
2019-05-19T04:22:39.010Z,98936.55
2019-05-19T04:25:13.188Z,98936.16
2019-05-19T04:27:47.304Z,98942.77
2019-05-19T04:30:21.990Z,98945.83
2019-05-19T04:32:55.952Z,98946.18
2019-05-19T04:35:30.069Z,98942.95
2019-05-19T04:38:04.080Z,98943.47
2019-05-19T04:40:38.359Z,98934.11
2019-05-19T04:43:12.356Z,98939.03
2019-05-19T04:45:47.474Z,98940.89
2019-05-19T04:48:21.428Z,98948.59
2019-05-19T04:50:55.594Z,98955.55
2019-05-19T04:53:29.861Z,98952.55
2019-05-19T04:56:04.129Z,98951.44
2019-05-19T04:58:38.203Z,98950.06
2019-05-19T05:01:12.397Z,98951.17
2019-05-19T05:03:46.490Z,98947.19
2019-05-19T05:06:21.927Z,98946.45
2019-05-19T05:08:56.169Z,98950.87
2019-05-19T05:11:30.474Z,98950.91
2019-05-19T05:14:04.532Z,98952.27
2019-05-19T05:16:38.991Z,98949.24
2019-05-19T05:19:13.203Z,98946.45
2019-05-19T05:21:47.410Z,98946.73
2019-05-19T05:24:21.642Z,98939.59
2019-05-19T05:26:57.025Z,98939.56
2019-05-19T05:29:31.186Z,98936.84
2019-05-19T05:32:05.089Z,98934.38
2019-05-19T05:34:40.190Z,98933.02
2019-05-19T05:37:14.299Z,98938.78
2019-05-19T05:39:48.365Z,98941.55
2019-05-19T05:42:22.534Z,98940.42
2019-05-19T05:44:56.746Z,98930.50
2019-05-19T05:47:30.535Z,98932.14
2019-05-19T05:50:04.485Z,98932.41
2019-05-19T05:52:39.196Z,98928.04
2019-05-19T05:55:13.626Z,98928.04
2019-05-19T05:57:47.899Z,98919.80
2019-05-19T06:00:22.913Z,98914.56
2019-05-19T06:02:57.122Z,98922.28
2019-05-19T06:05:31.527Z,98916.23
2019-05-19T06:08:05.676Z,98915.67
2019-05-19T06:10:39.709Z,98913.77
2019-05-19T06:13:13.775Z,98910.75
2019-05-19T06:15:48.039Z,98902.52
2019-05-19T06:18:22.391Z,98908.55
2019-05-19T06:20:56.697Z,98897.04
2019-05-19T06:23:31.064Z,98895.92
2019-05-19T06:26:05.492Z,98885.23
2019-05-19T06:28:39.987Z,98891.01
2019-05-19T06:31:15.801Z,98893.19
2019-05-19T06:33:49.893Z,98890.45
2019-05-19T06:36:23.981Z,98883.13
2019-05-19T06:38:58.184Z,98883.95
2019-05-19T06:41:32.310Z,98876.52
2019-05-19T06:44:06.523Z,98872.97
2019-05-19T06:46:40.366Z,98871.33
2019-05-19T06:49:14.590Z,98873.80
2019-05-19T06:51:48.356Z,98871.59
2019-05-19T06:54:22.212Z,98868.04
2019-05-19T06:56:56.144Z,98863.67
2019-05-19T06:59:30.063Z,98859.00
2019-05-19T07:02:04.017Z,98866.44
2019-05-19T07:04:37.994Z,98859.28
2019-05-19T07:07:12.307Z,98856.27
2019-05-19T07:09:57.780Z,98860.94
2019-05-19T07:12:21.904Z,98863.16
2019-05-19T07:14:56.174Z,98852.16
2019-05-19T07:17:30.292Z,98846.64
2019-05-19T07:20:04.620Z,98856.00
2019-05-19T07:22:39.626Z,98850.50
2019-05-19T07:25:15.659Z,98849.13
2019-05-19T07:27:49.906Z,98836.48
2019-05-19T07:30:24.312Z,98838.42
2019-05-19T07:32:58.579Z,98828.52
2019-05-19T07:35:32.800Z,98826.58
2019-05-19T07:38:07.604Z,98824.96
2019-05-19T07:40:42.136Z,98823.56
2019-05-19T07:43:16.260Z,98823.85
2019-05-19T07:45:50.528Z,98821.65
2019-05-19T07:48:24.574Z,98815.05
2019-05-19T07:50:58.690Z,98808.70
2019-05-19T07:53:42.472Z,98812.30
2019-05-19T07:56:08.924Z,98800.77
2019-05-19T07:58:44.303Z,98805.98
2019-05-19T08:01:18.463Z,98804.86
2019-05-19T08:03:52.695Z,98801.55
2019-05-19T08:06:27.137Z,98796.61
2019-05-19T08:09:01.331Z,98803.20
2019-05-19T08:11:37.553Z,98795.24
2019-05-19T08:14:11.846Z,98790.02
2019-05-19T08:16:46.275Z,98788.90
2019-05-19T08:19:20.112Z,98786.15
2019-05-19T08:21:54.359Z,98782.59
2019-05-19T08:24:29.675Z,98768.27
2019-05-19T08:27:04.052Z,98774.34
2019-05-19T08:29:39.245Z,98768.84
2019-05-19T08:32:13.714Z,98776.00
2019-05-19T08:34:47.977Z,98770.21
2019-05-19T08:37:22.231Z,98757.02
2019-05-19T08:39:56.244Z,98755.89
2019-05-19T08:42:30.697Z,98758.93
2019-05-19T08:45:04.496Z,98752.02
2019-05-19T08:47:39.122Z,98748.17
2019-05-19T08:50:13.886Z,98749.83
2019-05-19T08:52:48.157Z,98742.14
2019-05-19T08:55:22.984Z,98745.13
2019-05-19T08:57:57.996Z,98744.04
2019-05-19T09:00:37.566Z,98748.20
2019-05-19T09:03:08.301Z,98742.50
2019-05-19T09:05:42.668Z,98732.27
2019-05-19T09:08:16.489Z,98732.41
2019-05-19T09:10:50.638Z,98732.25
2019-05-19T09:13:24.877Z,98729.09
2019-05-19T09:15:58.964Z,98711.45
2019-05-19T09:18:33.173Z,98723.16
2019-05-19T09:21:07.186Z,98711.55
2019-05-19T09:23:41.604Z,98707.68
2019-05-19T09:26:15.684Z,98714.16
2019-05-19T09:28:49.837Z,98716.08
2019-05-19T09:31:24.000Z,98708.08
2019-05-19T09:33:58.166Z,98703.26
2019-05-19T09:36:33.343Z,98701.42
2019-05-19T09:39:09.284Z,98701.56
2019-05-19T09:41:43.401Z,98696.54
2019-05-19T09:44:17.643Z,98695.25
2019-05-19T09:46:51.792Z,98701.62
2019-05-19T09:49:36.496Z,98695.77
2019-05-19T09:52:11.394Z,98696.35
2019-05-19T09:54:45.998Z,98697.14
2019-05-19T09:57:20.282Z,98703.72
2019-05-19T09:59:54.514Z,98699.88
2019-05-19T10:02:28.726Z,98688.14
2019-05-19T10:05:02.706Z,98680.98
2019-05-19T10:07:36.583Z,98690.23
2019-05-19T10:10:17.612Z,98679.55
2019-05-19T10:12:51.712Z,98673.78
2019-05-19T10:15:25.720Z,98673.75
2019-05-19T10:17:59.872Z,98664.98
2019-05-19T10:20:34.251Z,98660.00
2019-05-19T10:23:08.527Z,98664.89
2019-05-19T10:25:42.874Z,98668.44
2019-05-19T10:28:17.107Z,98666.75
2019-05-19T10:30:51.318Z,98664.86
2019-05-19T10:33:25.519Z,98665.90
2019-05-19T10:35:59.815Z,98661.27
2019-05-19T10:38:33.980Z,98658.77
2019-05-19T10:41:08.360Z,98660.43
2019-05-19T10:43:42.641Z,98655.22
2019-05-19T10:46:16.920Z,98663.12
2019-05-19T10:48:51.195Z,98656.84
2019-05-19T10:51:25.600Z,98650.98
2019-05-19T10:54:00.022Z,98651.56
2019-05-19T10:56:34.241Z,98650.20
2019-05-19T10:59:08.616Z,98650.39
2019-05-19T11:01:42.748Z,98657.19
2019-05-19T11:04:16.963Z,98650.09
2019-05-19T11:06:50.956Z,98648.95
2019-05-19T11:09:25.293Z,98648.95
2019-05-19T11:11:59.388Z,98641.59
2019-05-19T11:14:33.616Z,98653.09
2019-05-19T11:17:07.976Z,98642.15
2019-05-19T11:19:42.145Z,98635.28
2019-05-19T11:22:16.605Z,98642.89
2019-05-19T11:24:50.645Z,98641.19
2019-05-19T11:27:24.715Z,98639.52
2019-05-19T11:29:59.005Z,98639.05
2019-05-19T11:32:32.886Z,98636.57
2019-05-19T11:35:07.346Z,98629.73
2019-05-19T11:37:41.494Z,98640.67
2019-05-19T11:40:16.240Z,98640.93
2019-05-19T11:42:50.320Z,98644.99
2019-05-19T11:45:24.347Z,98640.56
2019-05-19T11:47:58.608Z,98647.14
2019-05-19T11:50:32.737Z,98643.92
2019-05-19T11:53:07.188Z,98639.52
2019-05-19T11:55:41.575Z,98640.67
2019-05-19T11:58:16.086Z,98647.43
2019-05-19T12:00:50.286Z,98641.15
2019-05-19T12:03:24.734Z,98640.59
2019-05-19T12:05:58.998Z,98644.19
2019-05-19T12:08:33.291Z,98639.56
2019-05-19T12:11:07.632Z,98647.69
2019-05-19T12:13:41.806Z,98646.39
2019-05-19T12:16:15.962Z,98646.88
2019-05-19T12:18:50.286Z,98650.98
2019-05-19T12:21:25.448Z,98649.88
2019-05-19T12:23:59.621Z,98650.75
2019-05-19T12:26:34.865Z,98652.39
2019-05-19T12:29:09.072Z,98654.56
2019-05-19T12:31:43.063Z,98654.86
2019-05-19T12:34:17.098Z,98655.08
2019-05-19T12:36:51.052Z,98657.30
2019-05-19T12:39:25.088Z,98654.81
2019-05-19T12:41:59.081Z,98665.16
2019-05-19T12:44:33.341Z,98667.05
2019-05-19T12:47:07.727Z,98669.23
2019-05-19T12:49:41.793Z,98667.16
2019-05-19T12:52:16.036Z,98666.31
2019-05-19T12:54:50.130Z,98674.22
2019-05-19T12:57:24.152Z,98672.33
2019-05-19T12:59:58.243Z,98663.91
2019-05-19T13:02:32.586Z,98672.25
2019-05-19T13:05:06.695Z,98672.09
2019-05-19T13:07:41.023Z,98666.86
2019-05-19T13:10:15.050Z,98673.90
2019-05-19T13:12:49.063Z,98667.66
2019-05-19T13:15:23.428Z,98674.03
2019-05-19T13:17:57.710Z,98670.20
2019-05-19T13:20:32.044Z,98669.92
2019-05-19T13:23:06.287Z,98678.72
2019-05-19T13:25:40.647Z,98679.27
2019-05-19T13:28:14.884Z,98683.66
2019-05-19T13:30:49.344Z,98680.94
2019-05-19T13:33:23.691Z,98687.27
2019-05-19T13:35:58.301Z,98682.55
2019-05-19T13:38:32.340Z,98679.52
2019-05-19T13:41:06.580Z,98680.90
2019-05-19T13:43:40.644Z,98680.34
2019-05-19T13:46:14.984Z,98686.33
2019-05-19T13:48:49.038Z,98691.55
2019-05-19T13:51:23.432Z,98694.02
2019-05-19T13:53:57.526Z,98694.04
2019-05-19T13:56:31.869Z,98692.63
2019-05-19T13:59:06.042Z,98694.28
2019-05-19T14:01:40.154Z,98693.99
2019-05-19T14:04:14.280Z,98692.86
2019-05-19T14:06:48.644Z,98699.73
2019-05-19T14:09:22.869Z,98698.35
2019-05-19T14:11:57.438Z,98700.25
2019-05-19T14:14:31.459Z,98700.23
2019-05-19T14:17:05.752Z,98710.40
2019-05-19T14:19:39.980Z,98715.03
2019-05-19T14:22:14.151Z,98715.09
2019-05-19T14:24:48.151Z,98717.89
2019-05-19T14:27:30.048Z,98729.76
2019-05-19T14:29:58.874Z,98729.76
2019-05-19T14:32:33.252Z,98733.64
2019-05-19T14:35:09.878Z,98731.42
2019-05-19T14:37:45.793Z,98747.11
2019-05-19T14:40:21.014Z,98747.11
2019-05-19T14:43:01.272Z,98749.58
2019-05-19T14:45:35.273Z,98744.61
2019-05-19T14:48:09.506Z,98744.61
2019-05-19T14:50:43.698Z,98749.33
2019-05-19T14:53:17.894Z,98753.70
2019-05-19T14:55:51.941Z,98752.61
2019-05-19T14:58:25.935Z,98753.98
2019-05-19T15:01:04.094Z,98754.27
2019-05-19T15:03:38.283Z,98749.02
2019-05-19T15:06:12.506Z,98749.02
2019-05-19T15:08:46.766Z,98753.70
2019-05-19T15:11:20.928Z,98750.39
2019-05-19T15:13:55.137Z,98756.98
2019-05-19T15:16:29.191Z,98764.42
2019-05-19T15:19:03.348Z,98764.42
2019-05-19T15:21:37.420Z,98768.80
2019-05-19T15:24:11.360Z,98770.74
2019-05-19T15:26:45.613Z,98775.15
2019-05-19T15:29:19.845Z,98780.38
2019-05-19T15:31:54.021Z,98762.20
2019-05-19T15:34:28.271Z,98776.77
2019-05-19T15:37:06.134Z,98776.77
2019-05-19T15:39:40.458Z,98774.02
2019-05-19T15:42:14.715Z,98778.58
2019-05-19T15:44:48.692Z,98774.91
2019-05-19T15:47:22.755Z,98787.51
2019-05-19T15:49:56.680Z,98786.38
2019-05-19T15:52:30.664Z,98792.15
2019-05-19T15:55:04.688Z,98797.36
2019-05-19T15:57:38.736Z,98800.94
2019-05-19T16:00:13.760Z,98807.25
2019-05-19T16:02:48.001Z,98806.43
2019-05-19T16:05:22.041Z,98814.69
2019-05-19T16:07:56.342Z,98808.89
2019-05-19T16:10:30.539Z,98814.34
2019-05-19T16:13:04.662Z,98813.81
2019-05-19T16:15:38.854Z,98812.17
2019-05-19T16:18:13.014Z,98818.49
2019-05-19T16:20:47.106Z,98817.34
2019-05-19T16:23:22.415Z,98825.33
2019-05-19T16:26:39.780Z,98822.45
2019-05-19T16:29:13.904Z,98830.39
2019-05-19T16:31:48.411Z,98833.75
2019-05-19T16:34:23.602Z,98835.66
2019-05-19T16:36:58.882Z,98841.64
2019-05-19T16:39:33.025Z,98842.73
2019-05-19T16:42:07.180Z,98840.22
2019-05-19T16:44:41.562Z,98838.30
2019-05-19T16:47:15.577Z,98846.22
2019-05-19T16:49:49.660Z,98842.94
2019-05-19T16:52:23.833Z,98847.19
2019-05-19T16:55:15.237Z,98850.97
2019-05-19T16:57:49.382Z,98849.25
2019-05-19T17:00:24.228Z,98854.94
2019-05-19T17:02:58.598Z,98856.24
2019-05-19T17:05:33.007Z,98865.28
2019-05-19T17:08:07.364Z,98864.95
2019-05-19T17:10:41.581Z,98872.55
2019-05-19T17:13:15.441Z,98884.55
2019-05-19T17:15:49.750Z,98871.59
2019-05-19T17:18:23.657Z,98877.83
2019-05-19T17:20:57.811Z,98876.33
2019-05-19T17:23:32.245Z,98876.31
2019-05-19T17:26:06.663Z,98879.78
2019-05-19T17:28:40.641Z,98877.81
2019-05-19T17:31:14.805Z,98878.02
2019-05-19T17:33:48.910Z,98880.47
2019-05-19T17:36:23.125Z,98886.90
2019-05-19T17:38:56.998Z,98886.80
2019-05-19T17:41:31.258Z,98890.52
2019-05-19T17:44:05.856Z,98892.97
2019-05-19T17:46:39.880Z,98886.16
2019-05-19T17:49:13.987Z,98895.97
2019-05-19T17:51:48.141Z,98892.93
2019-05-19T17:54:22.673Z,98896.19
2019-05-19T17:56:56.848Z,98896.16
2019-05-19T17:59:31.737Z,98897.78
2019-05-19T18:02:06.141Z,98896.12
2019-05-19T18:04:41.206Z,98894.19
2019-05-19T18:07:15.305Z,98896.93
2019-05-19T18:09:49.470Z,98897.42
2019-05-19T18:12:24.468Z,98894.42
2019-05-19T18:14:58.502Z,98898.78
2019-05-19T18:17:32.693Z,98894.64
2019-05-19T18:20:06.786Z,98901.70
2019-05-19T18:22:40.770Z,98888.53
2019-05-19T18:25:14.923Z,98892.86
2019-05-19T18:27:49.398Z,98897.22
2019-05-19T18:30:23.913Z,98894.16
2019-05-19T18:32:58.035Z,98895.73
2019-05-19T18:35:32.336Z,98894.67
2019-05-19T18:38:06.716Z,98897.11
2019-05-19T18:40:40.993Z,98903.95
2019-05-19T18:43:15.266Z,98911.02
2019-05-19T18:45:49.388Z,98909.91
2019-05-19T18:48:23.868Z,98906.56
2019-05-19T18:50:58.287Z,98905.41
2019-05-19T18:53:32.876Z,98904.05
2019-05-19T18:56:07.303Z,98905.41
2019-05-19T18:58:41.782Z,98903.19
2019-05-19T19:01:16.061Z,98908.95
2019-05-19T19:03:50.882Z,98903.48
2019-05-19T19:06:25.365Z,98899.89
2019-05-19T19:08:59.801Z,98894.42
2019-05-19T19:11:34.187Z,98891.95
2019-05-19T19:14:08.597Z,98887.80
2019-05-19T19:16:42.842Z,98886.95
2019-05-19T19:19:17.550Z,98890.71
2019-05-19T19:21:51.829Z,98884.69
2019-05-19T19:24:26.423Z,98883.58
2019-05-19T19:27:00.581Z,98874.00
2019-05-19T19:29:34.899Z,98881.13
2019-05-19T19:32:09.442Z,98877.81
2019-05-19T19:34:44.676Z,98874.51
2019-05-19T19:37:18.964Z,98878.31
2019-05-19T19:39:53.275Z,98875.06
2019-05-19T19:42:27.486Z,98871.42
2019-05-19T19:45:01.761Z,98870.54
2019-05-19T19:47:36.176Z,98865.58
2019-05-19T19:50:10.269Z,98856.85
2019-05-19T19:52:44.545Z,98857.11
2019-05-19T19:55:18.861Z,98852.33
2019-05-19T19:57:53.170Z,98853.70
2019-05-19T20:00:46.235Z,98845.40
2019-05-19T20:03:20.639Z,98856.51
2019-05-19T20:05:55.202Z,98851.19
2019-05-19T20:08:29.547Z,98849.56
2019-05-19T20:11:03.883Z,98848.45
2019-05-19T20:13:37.952Z,98843.84
2019-05-19T20:16:12.336Z,98836.04
2019-05-19T20:18:46.544Z,98838.02
2019-05-19T20:21:20.663Z,98837.70
2019-05-19T20:23:55.131Z,98835.47
2019-05-19T20:26:29.811Z,98832.28
2019-05-19T20:29:04.252Z,98834.30
2019-05-19T20:31:38.427Z,98836.55
2019-05-19T20:34:12.862Z,98829.63
2019-05-19T20:36:47.052Z,98822.80
2019-05-19T20:39:21.493Z,98816.62
2019-05-19T20:41:55.807Z,98823.67
2019-05-19T20:44:31.169Z,98818.22
2019-05-19T20:47:05.652Z,98809.02
2019-05-19T20:49:39.848Z,98813.92
2019-05-19T20:52:14.179Z,98812.49
2019-05-19T20:54:48.603Z,98807.88
2019-05-19T20:57:23.155Z,98804.28
2019-05-19T20:59:57.731Z,98802.00
2019-05-19T21:02:31.893Z,98803.44
2019-05-19T21:05:06.529Z,98789.31
2019-05-19T21:07:40.716Z,98791.70
2019-05-19T21:10:15.196Z,98785.52
2019-05-19T21:12:49.727Z,98790.70
2019-05-19T21:15:24.183Z,98794.73
2019-05-19T21:17:59.023Z,98791.20
2019-05-19T21:20:34.014Z,98795.64
2019-05-19T21:23:08.866Z,98794.14
2019-05-19T21:25:43.491Z,98799.59
2019-05-19T21:28:18.719Z,98793.35
2019-05-19T21:31:04.870Z,98792.46
2019-05-19T21:33:34.453Z,98789.98
2019-05-19T21:36:09.459Z,98799.02
2019-05-19T21:38:43.957Z,98792.77
2019-05-19T21:41:19.108Z,98791.10
2019-05-19T21:43:53.729Z,98795.44
2019-05-19T21:46:34.566Z,98792.34
2019-05-19T21:49:09.407Z,98787.38
2019-05-19T21:51:44.246Z,98786.50
2019-05-19T21:54:18.996Z,98783.66
2019-05-19T21:56:54.975Z,98781.61
2019-05-19T21:59:29.500Z,98777.45
2019-05-19T22:02:04.712Z,98780.78
2019-05-19T22:04:39.383Z,98773.55
2019-05-19T22:07:25.307Z,98777.20
2019-05-19T22:10:00.014Z,98779.19
2019-05-19T22:12:34.741Z,98775.08
2019-05-19T22:15:12.244Z,98777.98
2019-05-19T22:17:46.956Z,98786.06
2019-05-19T22:20:21.812Z,98780.41
2019-05-19T22:22:56.485Z,98774.86
2019-05-19T22:25:30.879Z,98775.16
2019-05-19T22:28:05.774Z,98779.91
2019-05-19T22:30:40.436Z,98774.90
2019-05-19T22:33:15.018Z,98776.02
2019-05-19T22:35:50.178Z,98777.56
2019-05-19T22:38:24.753Z,98780.54
2019-05-19T22:40:59.433Z,98777.98
2019-05-19T22:43:34.290Z,98782.53
2019-05-19T22:46:08.642Z,98780.69
2019-05-19T22:48:43.147Z,98779.53
2019-05-19T22:51:17.637Z,98787.34
2019-05-19T22:53:52.592Z,98784.83
2019-05-19T22:56:27.204Z,98789.41
2019-05-19T22:59:01.844Z,98789.06
2019-05-19T23:01:50.721Z,98790.42
2019-05-19T23:04:12.901Z,98787.38
2019-05-19T23:06:47.859Z,98784.84
2019-05-19T23:09:22.096Z,98796.90
2019-05-19T23:11:56.745Z,98789.72
2019-05-19T23:14:31.234Z,98792.86
2019-05-19T23:17:05.495Z,98797.17
2019-05-19T23:19:40.827Z,98796.81
2019-05-19T23:22:15.115Z,98796.67
2019-05-19T23:24:49.423Z,98801.40
2019-05-19T23:27:23.571Z,98803.83
2019-05-19T23:29:57.679Z,98805.87
2019-05-19T23:32:31.653Z,98815.57
2019-05-19T23:35:05.888Z,98814.11
2019-05-19T23:37:40.195Z,98817.64
2019-05-19T23:40:14.491Z,98816.29
2019-05-19T23:42:48.504Z,98814.25
2019-05-19T23:45:22.571Z,98817.47
2019-05-19T23:47:56.492Z,98823.58
2019-05-19T23:50:30.700Z,98827.95
2019-05-19T23:53:04.751Z,98836.32
2019-05-19T23:55:38.787Z,98833.13
2019-05-19T23:58:12.745Z,98833.52
